Decoded Metar for LFSI (ST.-DIZIER in FRANCE) (IATA:N/A) | Meteo·Mobile Aviation Weather
aviador You're here:

LFSI Decoded Metar

ST.-DIZIER in FRANCE
Report Time2018-11-12 23:00:00
UTC Time2018-11-12 23:22:26
Flight Rules ifr IFR
Wind250° at 01 kt
W.Decomp.*RWY 29: 0.8 kt HW 0.7 kt LCW
W.Rank250° ranks 9
Current wind is below 250° avg. (7.9)
Visibility4200 m
Phenomena:Rain
Mist
Clouds:Overcast 013 Hf
Expected CloudBase > 400 ft AGL from Temp-Dew spread
Ceiling1,300 ft
Temp11°C (ISA -3)
Dew Point10°C (94% RH)
AAT10.7°C
QNH1021 hPa
Density Alt-13 ft
Elevation459 ft
Report Wrong Elevation
Raw Report
METAR LFSI 122300Z AUTO 25001KT 4200 RA BR OVC013/// ///TCU 11/10 Q1021=

Extra information for LFSI:More info

Metar Taf Metar & Taf Last 4 Metars F.Rules Stats Wind Profile Meteogram Temp Stats Airport Information Weather charts Add Link Nearby VenuesMetar ALERT Operation Metar Decoded Social comments